Time;durP1;ratioP1;P1;durP2;ratioP2;P2;SDS_P1;SDS_P2;PMS_P1;PMS_P2;Temp;Humidity;BMP_temperature;BMP_pressure;BME280_temperature;BME280_humidity;BME280_pressure;Samples;Min_cycle;Max_cycle;Signal;HPM_P1;HPM_P2
2021/07/25 00:02:18;;;;;;;;;;;;;;;27.11;49.84;100281.72;5088379;28;1073;-70
2021/07/25 00:04:46;;;;;;;;;;;;;;;27.01;49.90;100292.47;5088209;28;1200;-70
2021/07/25 00:07:12;;;;;;;;;;;;;;;27.01;50.11;100280.94;5087872;28;1171;-70
2021/07/25 00:09:39;;;;;;;;;;;;;;;27.05;49.76;100288.47;5087746;28;1909;-70
2021/07/25 00:12:06;;;;;;;;;;;;;;;27.07;49.65;100285.66;5087327;28;1233;-69
2021/07/25 00:14:33;;;;;;;;;;;;;;;27.18;49.55;100280.09;5087741;28;1307;-70
2021/07/25 00:17:00;;;;;;;;;;;;;;;27.15;49.55;100275.03;5088009;28;1134;-70
2021/07/25 00:19:27;;;;;;;;;;;;;;;27.05;49.62;100275.13;5088117;28;1334;-70
2021/07/25 00:21:54;;;;;;;;;;;;;;;27.15;49.85;100275.03;5069721;28;1057;-71
2021/07/25 00:24:28;;;;;;;;;;;;;;;27.04;50.05;100281.47;5088173;28;1264;-70
2021/07/25 00:26:58;;;;;;;;;;;;;;;26.92;50.69;100288.03;5088254;28;972;-70
2021/07/25 00:29:25;;;;;;;;;;;;;;;26.95;50.55;100281.53;5088116;28;1240;-70
2021/07/25 00:31:51;;;;;;;;;;;;;;;26.91;50.77;100290.84;5088009;28;1910;-70
2021/07/25 00:34:18;;;;;;;;;;;;;;;26.94;50.81;100285.19;5087554;28;1284;-70
2021/07/25 00:36:45;;;;;;;;;;;;;;;27.22;50.09;100276.13;5086997;28;1033;-71
2021/07/25 00:39:12;;;;;;;;;;;;;;;26.99;50.37;100288.28;5087783;28;1192;-71
2021/07/25 00:41:38;;;;;;;;;;;;;;;26.90;50.91;100289.19;5087438;28;1348;-70
2021/07/25 00:44:05;;;;;;;;;;;;;;;26.89;50.87;100287.47;5103040;28;1335;-70
2021/07/25 00:46:32;;;;;;;;;;;;;;;26.91;50.90;100280.16;5087791;28;924;-70
2021/07/25 00:49:00;;;;;;;;;;;;;;;26.94;50.77;100285.19;5102951;28;1232;-70
2021/07/25 00:51:28;;;;;;;;;;;;;;;26.90;50.87;100284.66;5069366;28;1989;-70
2021/07/25 00:53:55;;;;;;;;;;;;;;;26.98;50.73;100286.56;5087386;28;1303;-70
2021/07/25 00:56:22;;;;;;;;;;;;;;;26.99;50.71;100286.41;5087399;28;1111;-69
2021/07/25 00:58:49;;;;;;;;;;;;;;;26.94;50.66;100271.81;5102987;28;1197;-69
2021/07/25 01:01:19;;;;;;;;;;;;;;;26.94;51.06;100283.34;5087604;28;968;-70
2021/07/25 01:03:46;;;;;;;;;;;;;;;26.86;51.12;100282.44;5087512;28;1369;-70
2021/07/25 01:06:16;;;;;;;;;;;;;;;26.92;50.90;100281.84;5052663;28;1069;-70
2021/07/25 01:08:55;;;;;;;;;;;;;;;26.87;51.04;100268.91;5072312;28;1593;-70
2021/07/25 01:11:25;;;;;;;;;;;;;;;26.94;50.90;100279.84;5090667;28;1926;-69
2021/07/25 01:13:54;;;;;;;;;;;;;;;26.88;50.99;100286.63;5090932;28;1392;-69
2021/07/25 01:16:21;;;;;;;;;;;;;;;26.93;50.87;100286.19;5072425;28;1044;-70
2021/07/25 01:18:49;;;;;;;;;;;;;;;26.88;51.39;100286.63;5072286;28;1613;-70
2021/07/25 01:21:17;;;;;;;;;;;;;;;26.89;51.42;100292.81;5055975;28;1728;-69
2021/07/25 01:23:44;;;;;;;;;;;;;;;26.89;51.50;100292.81;5072604;28;1318;-68
2021/07/25 01:26:12;;;;;;;;;;;;;;;26.94;51.44;100287.84;5071847;28;1069;-69
2021/07/25 01:28:46;;;;;;;;;;;;;;;26.91;51.75;100286.34;5090191;28;1200;-69
2021/07/25 01:31:16;;;;;;;;;;;;;;;26.87;51.44;100290.28;5072368;28;1979;-69
2021/07/25 01:33:43;;;;;;;;;;;;;;;26.85;51.59;100283.41;5072025;28;1326;-69
2021/07/25 01:36:11;;;;;;;;;;;;;;;26.90;51.15;100286.50;5106051;28;1592;-69
2021/07/25 01:38:38;;;;;;;;;;;;;;;26.83;51.37;100288.09;5090489;28;1177;-69
2021/07/25 01:41:04;;;;;;;;;;;;;;;26.84;51.12;100289.78;5090595;28;1463;-69
2021/07/25 01:43:33;;;;;;;;;;;;;;;26.92;50.84;100284.50;5090623;28;1228;-69
2021/07/25 01:46:00;;;;;;;;;;;;;;;26.88;51.19;100281.28;5090479;28;1149;-69
2021/07/25 01:48:26;;;;;;;;;;;;;;;26.84;51.06;100274.56;5090254;28;1321;-69
2021/07/25 01:50:53;;;;;;;;;;;;;;;26.87;51.13;100287.63;5090414;28;1979;-70
2021/07/25 01:53:20;;;;;;;;;;;;;;;26.85;50.98;100278.91;5089944;28;1290;-70
2021/07/25 01:55:47;;;;;;;;;;;;;;;26.84;51.05;100284.44;5105571;28;1157;-69
2021/07/25 01:58:13;;;;;;;;;;;;;;;26.84;51.43;100281.75;5090070;28;778;-69
2021/07/25 02:00:40;;;;;;;;;;;;;;;26.89;51.22;100276.78;5071694;28;1251;-69
2021/07/25 02:03:07;;;;;;;;;;;;;;;26.90;51.38;100281.97;5089661;28;782;-69
2021/07/25 02:05:37;;;;;;;;;;;;;;;26.83;51.35;100275.56;5089862;28;1263;-69
2021/07/25 02:08:04;;;;;;;;;;;;;;;26.83;51.74;100274.72;5089372;28;1076;-69
2021/07/25 02:10:31;;;;;;;;;;;;;;;26.86;51.61;100269.91;5089386;28;1909;-69
2021/07/25 02:12:57;;;;;;;;;;;;;;;26.89;51.39;100271.44;5089137;28;1103;-69
2021/07/25 02:15:24;;;;;;;;;;;;;;;26.80;51.54;100275.03;5089597;28;1298;-69
2021/07/25 02:17:51;;;;;;;;;;;;;;;26.79;51.74;100273.31;5089734;28;997;-69
2021/07/25 02:20:17;;;;;;;;;;;;;;;26.81;51.74;100274.84;5089556;28;1244;-70
2021/07/25 02:22:44;;;;;;;;;;;;;;;26.77;51.83;100272.63;5089348;28;916;-69
2021/07/25 02:25:12;;;;;;;;;;;;;;;26.76;51.74;100265.59;5070734;28;1326;-70
2021/07/25 02:27:39;;;;;;;;;;;;;;;26.72;51.82;100270.38;5071090;28;1351;-69
2021/07/25 02:30:06;;;;;;;;;;;;;;;26.70;51.70;100274.19;5088566;28;1303;-69
2021/07/25 02:32:32;;;;;;;;;;;;;;;26.68;51.62;100271.69;5104481;28;1926;-70
2021/07/25 02:34:59;;;;;;;;;;;;;;;26.65;51.69;100257.78;5088954;28;1316;-69
2021/07/25 02:37:26;;;;;;;;;;;;;;;26.70;51.76;100251.00;5089125;28;794;-69
2021/07/25 02:39:55;;;;;;;;;;;;;;;26.68;51.83;100252.16;5070949;28;1295;-69
2021/07/25 02:42:22;;;;;;;;;;;;;;;26.71;51.76;100247.34;5088858;28;1594;-69
2021/07/25 02:44:50;;;;;;;;;;;;;;;26.67;51.52;100245.13;5088915;28;1230;-69
2021/07/25 02:47:17;;;;;;;;;;;;;;;26.70;51.44;100240.31;5089533;28;1078;-69
2021/07/25 02:49:44;;;;;;;;;;;;;;;26.88;50.89;100245.72;5089078;28;1314;-69
2021/07/25 02:52:10;;;;;;;;;;;;;;;26.70;51.42;100250.16;5088539;28;1910;-69
2021/07/25 02:54:37;;;;;;;;;;;;;;;26.60;51.83;100248.38;5088850;28;1295;-68
2021/07/25 02:57:04;;;;;;;;;;;;;;;26.54;52.00;100248.97;5089117;28;1167;-67
2021/07/25 02:59:30;;;;;;;;;;;;;;;26.53;51.92;100241.97;5089108;28;1329;-68
2021/07/25 03:01:57;;;;;;;;;;;;;;;26.58;51.99;100241.50;5088959;28;1222;-69
2021/07/25 03:04:24;;;;;;;;;;;;;;;26.56;52.00;100244.34;5088650;28;1224;-69
2021/07/25 03:06:51;;;;;;;;;;;;;;;26.60;51.42;100255.56;5070341;28;1063;-68
2021/07/25 03:09:18;;;;;;;;;;;;;;;26.53;52.03;100246.47;5089014;28;1205;-68
2021/07/25 03:11:44;;;;;;;;;;;;;;;26.66;51.57;100249.63;5088856;28;1966;-68
2021/07/25 03:14:11;;;;;;;;;;;;;;;26.59;51.68;100240.53;5088656;28;1303;-69
2021/07/25 03:16:38;;;;;;;;;;;;;;;26.64;51.66;100243.59;5088733;28;1131;-69
2021/07/25 03:19:05;;;;;;;;;;;;;;;26.67;51.45;100243.28;5088325;28;1216;-69
2021/07/25 03:21:34;;;;;;;;;;;;;;;26.59;51.40;100241.38;5088583;28;970;-69
2021/07/25 03:24:01;;;;;;;;;;;;;;;26.80;51.33;100241.13;5088197;28;1328;-69
2021/07/25 03:26:27;;;;;;;;;;;;;;;26.86;51.18;100234.34;5088585;28;1193;-69
2021/07/25 03:28:54;;;;;;;;;;;;;;;26.59;52.07;100244.06;5087932;28;1225;-69
2021/07/25 03:31:21;;;;;;;;;;;;;;;26.70;51.88;100236.81;5088431;28;1998;-69
2021/07/25 03:33:48;;;;;;;;;;;;;;;26.57;52.20;100240.66;5088237;28;1220;-69
2021/07/25 03:36:15;;;;;;;;;;;;;;;26.75;51.80;100239.88;5087956;28;905;-69
2021/07/25 03:38:42;;;;;;;;;;;;;;;26.83;51.79;100240.84;5087773;28;1205;-69
2021/07/25 03:41:08;;;;;;;;;;;;;;;26.68;52.51;100244.13;5088145;28;1575;-69
2021/07/25 03:43:35;;;;;;;;;;;;;;;26.71;52.54;100236.66;5088486;28;1375;-69
2021/07/25 03:46:02;;;;;;;;;;;;;;;26.36;54.02;100236.56;5088369;28;1068;-69
2021/07/25 03:48:29;;;;;;;;;;;;;;;26.36;53.99;100224.06;5087913;28;1330;-68
2021/07/25 03:50:56;;;;;;;;;;;;;;;26.67;53.48;100224.59;5088158;28;1985;-68
2021/07/25 03:53:23;;;;;;;;;;;;;;;26.34;54.39;100230.56;5069742;28;1220;-69
2021/07/25 03:55:50;;;;;;;;;;;;;;;26.50;54.11;100239.59;5088082;28;1119;-68
2021/07/25 03:58:17;;;;;;;;;;;;;;;26.50;54.00;100241.44;5069731;28;1072;-69
2021/07/25 04:00:43;;;;;;;;;;;;;;;26.71;53.40;100233.16;5088043;28;1260;-69
2021/07/25 04:03:10;;;;;;;;;;;;;;;26.78;53.06;100224.34;5069817;28;825;-68
2021/07/25 04:05:37;;;;;;;;;;;;;;;26.74;53.57;100230.16;5087765;28;1267;-69
2021/07/25 04:08:10;;;;;;;;;;;;;;;26.43;54.57;100238.50;5085951;28;1402;-69
2021/07/25 04:10:41;;;;;;;;;;;;;;;26.40;54.43;100229.94;5087594;28;1220;-68
2021/07/25 04:13:08;;;;;;;;;;;;;;;26.40;54.49;100229.94;5087462;28;1063;-69
2021/07/25 04:15:42;;;;;;;;;;;;;;;26.42;54.55;100228.81;5086914;28;1284;-69
2021/07/25 04:18:09;;;;;;;;;;;;;;;26.42;54.38;100228.81;5088271;28;1023;-68
2021/07/25 04:20:35;;;;;;;;;;;;;;;26.53;54.32;100239.31;5087863;28;1204;-70
2021/07/25 04:23:06;;;;;;;;;;;;;;;26.39;54.39;100226.44;5069467;28;1356;-68
2021/07/25 04:25:34;;;;;;;;;;;;;;;26.43;53.99;100230.50;5087894;28;1328;-68
2021/07/25 04:28:02;;;;;;;;;;;;;;;26.37;54.12;100223.09;5087629;28;865;-69
2021/07/25 04:30:29;;;;;;;;;;;;;;;26.36;54.52;100225.88;5087887;28;1317;-69
2021/07/25 04:32:57;;;;;;;;;;;;;;;26.36;54.56;100229.41;5087047;28;1975;-68
2021/07/25 04:35:24;;;;;;;;;;;;;;;26.34;54.10;100226.06;5087270;28;1275;-68
2021/07/25 04:37:53;;;;;;;;;;;;;;;26.36;54.30;100225.88;5087494;28;916;-68
2021/07/25 04:40:21;;;;;;;;;;;;;;;26.40;53.84;100225.47;5069360;28;1341;-69
2021/07/25 04:42:54;;;;;;;;;;;;;;;26.46;53.62;100232.03;5090412;28;1492;-68
2021/07/25 04:45:24;;;;;;;;;;;;;;;26.44;54.03;100231.34;5072873;28;1333;-68
2021/07/25 04:48:01;;;;;;;;;;;;;;;26.44;53.81;100234.88;5091155;28;1068;-69
2021/07/25 04:50:34;;;;;;;;;;;;;;;26.53;53.61;100231.31;5091324;28;1317;-69
2021/07/25 04:53:01;;;;;;;;;;;;;;;26.45;53.56;100231.19;5072743;28;1913;-68
2021/07/25 04:55:32;;;;;;;;;;;;;;;26.45;53.60;100233.84;5091140;28;1296;-68
2021/07/25 04:58:06;;;;;;;;;;;;;;;26.43;53.04;100230.50;5091069;28;853;-68
2021/07/25 05:00:37;;;;;;;;;;;;;;;26.48;53.07;100235.38;5072838;28;1290;-69
2021/07/25 05:03:05;;;;;;;;;;;;;;;26.47;52.94;100241.72;5091195;28;1044;-69
2021/07/25 05:05:33;;;;;;;;;;;;;;;26.46;52.96;100248.91;5072806;28;1306;-68
2021/07/25 05:08:01;;;;;;;;;;;;;;;26.36;52.82;100242.75;5091010;28;862;-68
2021/07/25 05:10:29;;;;;;;;;;;;;;;26.41;52.81;100245.00;5091110;28;1219;-68
2021/07/25 05:12:58;;;;;;;;;;;;;;;26.35;52.96;100245.59;5090877;28;1989;-69
2021/07/25 05:15:30;;;;;;;;;;;;;;;26.45;52.50;100244.53;5091120;28;1329;-68
2021/07/25 05:18:00;;;;;;;;;;;;;;;26.48;52.38;100246.06;5091197;28;1036;-68
2021/07/25 05:20:37;;;;;;;;;;;;;;;26.50;52.42;100247.63;5090949;28;1318;-69
2021/07/25 05:23:04;;;;;;;;;;;;;;;26.54;52.01;100245.47;5072094;28;1321;-68
2021/07/25 05:25:31;;;;;;;;;;;;;;;26.49;51.83;100253.94;5071974;28;1331;-69
2021/07/25 05:28:00;;;;;;;;;;;;;;;26.47;51.95;100252.41;5090600;28;1096;-69
2021/07/25 05:30:27;;;;;;;;;;;;;;;26.50;51.97;100254.78;5089312;28;1251;-69
2021/07/25 05:32:55;;;;;;;;;;;;;;;26.48;52.07;100257.59;5090059;28;1973;-69
2021/07/25 05:35:21;;;;;;;;;;;;;;;26.47;52.16;100252.41;5105656;28;1168;-70
2021/07/25 05:37:48;;;;;;;;;;;;;;;26.47;51.91;100257.75;5105715;28;785;-69
2021/07/25 05:40:15;;;;;;;;;;;;;;;26.43;52.06;100265.22;5090452;28;1339;-69
2021/07/25 05:42:42;;;;;;;;;;;;;;;26.51;51.76;100262.63;5088570;28;1502;-69
2021/07/25 05:45:10;;;;;;;;;;;;;;;26.51;52.14;100256.44;5072016;28;1175;-69
2021/07/25 05:47:37;;;;;;;;;;;;;;;26.58;52.23;100263.72;5090107;28;881;-69
2021/07/25 05:50:04;;;;;;;;;;;;;;;26.53;52.63;100265.19;5088645;28;1391;-70
2021/07/25 05:52:41;;;;;;;;;;;;;;;26.60;52.56;100266.25;5088921;28;1945;-69
2021/07/25 05:55:08;;;;;;;;;;;;;;;26.58;52.69;100262.88;5053862;28;1329;-70
2021/07/25 05:57:35;;;;;;;;;;;;;;;26.66;52.69;100267.50;5089211;28;1131;-69
2021/07/25 06:00:01;;;;;;;;;;;;;;;26.56;53.38;100265.72;5089265;28;1295;-70
2021/07/25 06:02:28;;;;;;;;;;;;;;;26.58;53.00;100271.75;5088950;28;1111;-69
2021/07/25 06:04:55;;;;;;;;;;;;;;;26.61;53.10;100271.44;5071060;28;1222;-70
2021/07/25 06:07:22;;;;;;;;;;;;;;;26.62;52.87;100277.63;5090039;28;829;-70
2021/07/25 06:09:48;;;;;;;;;;;;;;;26.59;52.99;100280.59;5089388;28;1295;-71
2021/07/25 06:12:16;;;;;;;;;;;;;;;26.53;53.37;100274.03;5089227;28;1956;-71
2021/07/25 06:14:42;;;;;;;;;;;;;;;26.58;53.32;100274.41;5088935;28;1306;-72
2021/07/25 06:17:09;;;;;;;;;;;;;;;26.64;52.95;100278.31;5089010;28;1128;-72
2021/07/25 06:19:36;;;;;;;;;;;;;;;26.66;52.80;100276.31;5088985;28;1324;-70
2021/07/25 06:22:05;;;;;;;;;;;;;;;26.67;52.55;100277.16;5089236;28;1134;-70
2021/07/25 06:24:33;;;;;;;;;;;;;;;26.68;52.46;100279.72;5088773;28;1307;-71
2021/07/25 06:26:59;;;;;;;;;;;;;;;26.68;52.67;100278.88;5087274;28;1246;-70
2021/07/25 06:29:26;;;;;;;;;;;;;;;26.73;52.27;100281.91;5088375;28;1232;-70
2021/07/25 06:31:53;;;;;;;;;;;;;;;26.76;52.55;100276.28;5089670;28;1976;-70
2021/07/25 06:34:19;;;;;;;;;;;;;;;26.76;52.70;100277.13;5070874;28;1604;-68
2021/07/25 06:36:46;;;;;;;;;;;;;;;26.70;52.52;100277.72;5070758;28;1059;-69
2021/07/25 06:39:12;;;;;;;;;;;;;;;26.74;52.59;100280.94;5088250;28;1228;-71
2021/07/25 06:41:39;;;;;;;;;;;;;;;26.74;52.47;100279.13;5086919;28;1638;-70
2021/07/25 06:44:06;;;;;;;;;;;;;;;26.71;52.34;100275.91;5088453;28;1291;-71
2021/07/25 06:46:34;;;;;;;;;;;;;;;26.75;52.34;100286.13;5088105;28;1123;-70
2021/07/25 06:49:01;;;;;;;;;;;;;;;26.75;52.37;100274.63;5088043;28;1310;-70
2021/07/25 06:51:28;;;;;;;;;;;;;;;26.77;52.45;100286.81;5087639;28;1977;-71
2021/07/25 06:53:57;;;;;;;;;;;;;;;26.74;52.19;100280.94;5087496;28;1204;-72
2021/07/25 06:56:24;;;;;;;;;;;;;;;26.78;51.98;100285.00;5088237;28;1048;-71
2021/07/25 06:58:51;;;;;;;;;;;;;;;26.80;51.69;100283.03;5069593;28;1341;-70
2021/07/25 07:01:17;;;;;;;;;;;;;;;26.90;51.65;100283.81;5088473;28;1028;-70
2021/07/25 07:03:44;;;;;;;;;;;;;;;26.80;51.99;100288.38;5087437;28;1232;-71
2021/07/25 07:06:11;;;;;;;;;;;;;;;26.87;51.97;100289.47;5087768;28;1111;-70
2021/07/25 07:08:38;;;;;;;;;;;;;;;26.89;51.69;100290.16;5069267;28;1438;-70
2021/07/25 07:11:04;;;;;;;;;;;;;;;26.94;51.73;100293.22;5087761;28;921;-69
2021/07/25 07:13:31;;;;;;;;;;;;;;;26.94;51.33;100280.69;5087346;28;1909;-71
2021/07/25 07:15:58;;;;;;;;;;;;;;;26.99;51.21;100283.72;5068727;28;1291;-71
2021/07/25 07:18:25;;;;;;;;;;;;;;;26.99;51.10;100283.72;5069016;28;1240;-72
2021/07/25 07:20:51;;;;;;;;;;;;;;;27.01;50.84;100283.59;5088702;28;869;-72
2021/07/25 07:23:20;;;;;;;;;;;;;;;26.95;50.68;100282.38;5088598;28;1020;-70
2021/07/25 07:25:49;;;;;;;;;;;;;;;26.90;51.09;100284.66;5088110;28;1159;-70
2021/07/25 07:28:17;;;;;;;;;;;;;;;26.96;50.73;100281.38;5088042;28;1764;-70
2021/07/25 07:30:44;;;;;;;;;;;;;;;27.04;50.89;100285.97;5087351;28;1236;-71
2021/07/25 07:33:12;;;;;;;;;;;;;;;27.08;50.57;100292.72;5077362;28;1989;-71
2021/07/25 07:35:39;;;;;;;;;;;;;;;27.07;50.08;100291.00;5059797;28;1292;-71
2021/07/25 07:38:07;;;;;;;;;;;;;;;27.07;50.29;100293.69;5087391;28;1229;-71
2021/07/25 07:40:34;;;;;;;;;;;;;;;27.15;50.06;100289.25;5068256;28;1310;-71
2021/07/25 07:43:02;;;;;;;;;;;;;;;27.22;49.87;100300.19;5067794;28;1221;-72
2021/07/25 07:45:29;;;;;;;;;;;;;;;27.21;49.98;100293.16;5086754;28;1249;-72
2021/07/25 07:47:55;;;;;;;;;;;;;;;27.21;49.98;100301.16;5068402;28;1205;-71
2021/07/25 07:50:22;;;;;;;;;;;;;;;27.19;49.37;100287.13;5075711;28;1369;-70
2021/07/25 07:52:49;;;;;;;;;;;;;;;27.28;49.34;100290.72;5086547;28;1980;-71
2021/07/25 07:55:17;;;;;;;;;;;;;;;27.27;49.24;100281.03;5086773;28;1295;-70
2021/07/25 07:57:46;;;;;;;;;;;;;;;27.34;48.97;100290.94;5086476;28;1268;-70
2021/07/25 08:00:13;;;;;;;;;;;;;;;27.32;48.93;100290.25;5076462;28;1304;-69
2021/07/25 08:02:40;;;;;;;;;;;;;;;27.37;49.10;100289.78;5058827;28;1376;-70
2021/07/25 08:05:07;;;;;;;;;;;;;;;27.34;48.71;100296.28;5093165;28;1370;-71
2021/07/25 08:07:34;;;;;;;;;;;;;;;27.36;48.36;100290.81;5086310;28;1228;-69
2021/07/25 08:10:02;;;;;;;;;;;;;;;27.40;47.87;100282.31;5090092;28;1240;-72
2021/07/25 08:12:28;;;;;;;;;;;;;;;27.46;47.43;100294.25;5076931;28;1981;-73
2021/07/25 08:14:55;;;;;;;;;;;;;;;27.44;47.54;100298.91;5076518;28;1395;-73
2021/07/25 08:17:23;;;;;;;;;;;;;;;27.49;47.31;100296.59;5097795;28;1270;-72
2021/07/25 08:19:51;;;;;;;;;;;;;;;27.51;47.25;100292.78;5090450;28;1324;-72
2021/07/25 08:22:17;;;;;;;;;;;;;;;27.55;47.11;100293.31;5072513;28;1155;-71
2021/07/25 08:24:44;;;;;;;;;;;;;;;27.53;47.18;100293.50;5090288;28;1274;-72
2021/07/25 08:27:11;;;;;;;;;;;;;;;27.53;46.97;100298.00;5091050;28;1221;-72
2021/07/25 08:29:39;;;;;;;;;;;;;;;27.57;47.14;100292.16;5084685;28;1385;-70
2021/07/25 08:32:06;;;;;;;;;;;;;;;27.62;47.57;100302.41;5089915;28;1963;-67
2021/07/25 08:34:33;;;;;;;;;;;;;;;27.61;48.23;100301.56;5090493;28;1362;-66
2021/07/25 08:37:00;;;;;;;;;;;;;;;27.64;48.80;100308.44;5079578;28;1276;-65
2021/07/25 08:39:27;;;;;;;;;;;;;;;27.65;49.41;100302.94;5062642;28;2440;-65
2021/07/25 08:42:00;;;;;;;;;;;;;;;27.68;49.62;100312.50;5086970;28;1442;-66
2021/07/25 08:44:41;;;;;;;;;;;;;;;27.67;50.28;100316.16;5087739;28;1366;-66
2021/07/25 08:47:32;;;;;;;;;;;;;;;27.72;50.63;100315.72;5086657;28;1253;-66
2021/07/25 08:49:59;;;;;;;;;;;;;;;27.69;50.79;100324.88;5078302;28;2232;-65
2021/07/25 08:52:30;;;;;;;;;;;;;;;27.68;51.03;100324.03;5078591;28;1910;-68
2021/07/25 08:54:58;;;;;;;;;;;;;;;27.64;51.44;100328.00;5079341;28;1366;-65
2021/07/25 08:57:26;;;;;;;;;;;;;;;27.64;51.94;100336.03;5073247;28;1178;-65
2021/07/25 08:59:53;;;;;;;;;;;;;;;27.67;52.52;100322.34;5052706;28;1260;-66
2021/07/25 09:02:21;;;;;;;;;;;;;;;27.73;52.38;100333.41;5070933;28;798;-69
2021/07/25 09:04:49;;;;;;;;;;;;;;;27.65;52.56;100331.53;5071119;28;1216;-69
2021/07/25 09:07:17;;;;;;;;;;;;;;;27.69;52.61;100330.25;5051989;28;1017;-72
2021/07/25 09:09:45;;;;;;;;;;;;;;;27.69;52.12;100336.41;5051950;28;1370;-74
2021/07/25 09:12:13;;;;;;;;;;;;;;;27.73;52.54;100328.06;5052572;28;1979;-69
2021/07/25 09:14:49;;;;;;;;;;;;;;;27.74;52.21;100332.44;5055347;28;1244;-70
2021/07/25 09:17:16;;;;;;;;;;;;;;;27.73;52.47;100336.94;5066493;28;1263;-68
2021/07/25 09:20:01;;;;;;;;;;;;;;;27.77;52.51;100340.16;5102074;28;1226;-70
2021/07/25 09:22:28;;;;;;;;;;;;;;;27.84;52.98;100342.06;5107981;28;1065;-71
2021/07/25 09:24:55;;;;;;;;;;;;;;;27.87;52.92;100341.75;5071900;28;1213;-68
2021/07/25 09:27:23;;;;;;;;;;;;;;;27.88;53.34;100346.09;5069538;28;766;-67
2021/07/25 09:29:51;;;;;;;;;;;;;;;27.81;53.56;100360.25;5088469;28;1274;-65
2021/07/25 09:32:22;;;;;;;;;;;;;;;27.76;53.84;100357.19;5088261;28;1980;-66
2021/07/25 09:34:49;;;;;;;;;;;;;;;27.77;53.77;100358.88;5088200;28;1259;-66
2021/07/25 09:37:17;;;;;;;;;;;;;;;27.79;54.41;100360.41;5070003;28;1333;-66
2021/07/25 09:39:54;;;;;;;;;;;;;;;27.77;54.35;100353.53;5088405;28;1239;-66
2021/07/25 09:42:28;;;;;;;;;;;;;;;27.77;54.16;100350.84;5070183;28;1490;-66
2021/07/25 09:44:56;;;;;;;;;;;;;;;27.87;55.32;100362.31;5088804;28;1191;-66
2021/07/25 09:47:33;;;;;;;;;;;;;;;27.90;55.37;100359.34;5090120;28;1073;-66
2021/07/25 09:50:01;;;;;;;;;;;;;;;27.85;54.12;100356.25;5090073;28;1198;-66
2021/07/25 09:52:29;;;;;;;;;;;;;;;27.83;55.03;100364.47;5088818;28;1981;-66
2021/07/25 09:54:58;;;;;;;;;;;;;;;27.85;55.12;100369.66;5089297;28;1239;-66
2021/07/25 09:57:26;;;;;;;;;;;;;;;27.81;55.03;100365.63;5089949;28;778;-66
2021/07/25 09:59:54;;;;;;;;;;;;;;;27.82;54.95;100370.81;5089641;28;1222;-66
2021/07/25 10:02:45;;;;;;;;;;;;;;;27.85;54.97;100378.53;5089622;28;1091;-66
2021/07/25 10:05:19;;;;;;;;;;;;;;;27.85;54.12;100372.31;5071121;28;1241;-66
2021/07/25 10:07:47;;;;;;;;;;;;;;;27.90;55.13;100381.59;5071219;28;1211;-66
2021/07/25 10:10:15;;;;;;;;;;;;;;;27.87;55.07;100381.91;5089676;28;1325;-66
2021/07/25 10:12:44;;;;;;;;;;;;;;;27.88;54.72;100388.06;5053898;28;1914;-66
2021/07/25 10:15:13;;;;;;;;;;;;;;;27.91;54.57;100382.41;5071508;28;1303;-66
2021/07/25 10:17:42;;;;;;;;;;;;;;;27.91;54.88;100383.25;5071294;28;770;-66
2021/07/25 10:20:10;;;;;;;;;;;;;;;27.88;53.89;100385.41;5089419;28;1236;-66
2021/07/25 10:22:38;;;;;;;;;;;;;;;27.92;55.10;100390.28;5088853;28;893;-67
2021/07/25 10:25:09;;;;;;;;;;;;;;;27.93;54.90;100378.59;5089081;28;1309;-67
2021/07/25 10:27:36;;;;;;;;;;;;;;;27.92;54.72;100382.28;5071124;28;857;-66
2021/07/25 10:30:05;;;;;;;;;;;;;;;27.98;54.98;100384.31;5089114;28;1242;-65
2021/07/25 10:32:36;;;;;;;;;;;;;;;27.92;55.05;100386.78;5088829;28;1921;-66
2021/07/25 10:35:05;;;;;;;;;;;;;;;27.89;55.25;100385.25;5070097;28;1275;-67
2021/07/25 10:37:34;;;;;;;;;;;;;;;27.93;55.16;100380.44;5088570;28;794;-66
2021/07/25 10:40:07;;;;;;;;;;;;;;;27.93;55.23;100383.13;5071128;28;1271;-66
2021/07/25 10:42:48;;;;;;;;;;;;;;;27.93;55.32;100380.44;5053703;28;1502;-66
2021/07/25 10:45:15;;;;;;;;;;;;;;;27.94;55.22;100382.94;5088616;28;1225;-66
2021/07/25 10:47:44;;;;;;;;;;;;;;;27.96;54.96;100380.13;5088504;28;1209;-66
2021/07/25 10:50:21;;;;;;;;;;;;;;;27.94;55.18;100376.75;5088876;28;1232;-66
2021/07/25 10:52:59;;;;;;;;;;;;;;;27.99;55.12;100379.81;5088293;28;1910;-66
2021/07/25 10:55:41;;;;;;;;;;;;;;;28.02;54.35;100375.00;5069928;28;1264;-67
2021/07/25 10:58:08;;;;;;;;;;;;;;;27.98;55.55;100380.81;5070379;28;1143;-67
2021/07/25 11:00:41;;;;;;;;;;;;;;;27.96;55.62;100389.00;5088754;28;1291;-68
2021/07/25 11:03:10;;;;;;;;;;;;;;;27.95;55.68;100386.47;5070290;28;1063;-67
2021/07/25 11:06:15;;;;;;;;;;;;;;;27.96;55.48;100377.44;5068845;28;1482;-67
2021/07/25 11:08:46;;;;;;;;;;;;;;;27.97;55.31;100371.94;5085943;28;1313;-67
2021/07/25 11:11:26;;;;;;;;;;;;;;;27.98;54.14;100378.13;5088019;28;1090;-67
2021/07/25 11:13:53;;;;;;;;;;;;;;;27.99;54.26;100393.19;5087988;28;1941;-67
2021/07/25 11:16:32;;;;;;;;;;;;;;;28.05;54.83;100388.09;5087604;28;870;-67
2021/07/25 11:19:08;;;;;;;;;;;;;;;28.01;54.80;100384.00;5069751;28;1388;-67
2021/07/25 11:21:43;;;;;;;;;;;;;;;28.04;54.43;100388.22;5069903;28;1056;-67
2021/07/25 11:24:28;;;;;;;;;;;;;;;28.02;54.45;100380.34;5088239;28;1291;-65
2021/07/25 11:27:03;;;;;;;;;;;;;;;28.02;54.72;100380.34;5088214;28;1112;-66
2021/07/25 11:29:33;;;;;;;;;;;;;;;27.96;54.99;100382.81;5087778;28;1259;-66
2021/07/25 11:32:01;;;;;;;;;;;;;;;27.96;55.51;100390.84;5069971;28;1015;-66
2021/07/25 11:34:29;;;;;;;;;;;;;;;27.95;55.74;100390.00;5087669;28;1989;-66
2021/07/25 11:36:57;;;;;;;;;;;;;;;27.97;55.74;100392.50;5069615;28;1083;-67
2021/07/25 11:39:23;;;;;;;;;;;;;;;27.93;56.00;100391.16;5087482;28;1200;-67
2021/07/25 11:41:52;;;;;;;;;;;;;;;27.97;55.96;100393.34;5087312;28;1552;-66
2021/07/25 11:44:27;;;;;;;;;;;;;;;27.93;55.95;100383.97;5087512;28;1350;-66
2021/07/25 11:46:55;;;;;;;;;;;;;;;27.95;55.87;100381.97;5088040;28;1329;-66
2021/07/25 11:49:26;;;;;;;;;;;;;;;27.94;55.57;100387.44;5069628;28;1204;-68
2021/07/25 11:52:00;;;;;;;;;;;;;;;27.91;55.68;100393.13;5087298;28;1075;-67
2021/07/25 11:54:30;;;;;;;;;;;;;;;27.89;55.09;100390.59;5087754;28;1914;-68
2021/07/25 11:56:56;;;;;;;;;;;;;;;27.88;55.50;100388.91;5087692;28;1125;-68
2021/07/25 11:59:23;;;;;;;;;;;;;;;27.89;54.32;100389.75;5069486;28;1300;-68
2021/07/25 12:01:50;;;;;;;;;;;;;;;27.97;55.13;100395.16;5052326;28;1472;-67
2021/07/25 12:04:34;;;;;;;;;;;;;;;27.94;55.19;100398.16;5087371;28;1314;-68
2021/07/25 12:07:00;;;;;;;;;;;;;;;28.00;54.71;100397.53;5087656;28;1263;-68
2021/07/25 12:09:27;;;;;;;;;;;;;;;28.02;54.82;100401.75;5087192;28;1216;-68
2021/07/25 12:12:01;;;;;;;;;;;;;;;28.06;54.87;100394.28;5087639;28;1084;-67
2021/07/25 12:14:29;;;;;;;;;;;;;;;28.07;55.04;100398.63;5087428;28;1975;-68
2021/07/25 12:16:56;;;;;;;;;;;;;;;28.04;55.17;100391.75;5087830;28;1060;-66
2021/07/25 12:19:23;;;;;;;;;;;;;;;27.99;55.14;100401.22;5087059;28;1239;-66
2021/07/25 12:22:03;;;;;;;;;;;;;;;28.06;55.29;100396.94;5086125;28;1430;-63
2021/07/25 12:24:31;;;;;;;;;;;;;;;28.05;55.01;100387.25;5086921;28;1358;-64
2021/07/25 12:26:58;;;;;;;;;;;;;;;28.08;54.61;100392.31;5086706;28;1215;-65
2021/07/25 12:29:42;;;;;;;;;;;;;;;28.09;55.13;100393.97;5086402;28;1423;-74
2021/07/25 12:32:28;;;;;;;;;;;;;;;28.05;54.53;100390.78;5087863;28;1134;-64
2021/07/25 12:35:12;;;;;;;;;;;;;;;27.84;53.83;100378.69;5102587;28;1913;-65
2021/07/25 12:37:44;;;;;;;;;;;;;;;27.59;53.33;100394.53;5087776;28;1079;-66
2021/07/25 12:40:11;;;;;;;;;;;;;;;27.49;52.71;100391.06;5085320;28;1326;-66
2021/07/25 12:42:41;;;;;;;;;;;;;;;27.47;52.10;100387.72;5091085;28;1440;-67
2021/07/25 12:45:26;;;;;;;;;;;;;;;27.43;51.66;100389.00;5063292;28;1407;-66
2021/07/25 12:48:08;;;;;;;;;;;;;;;27.41;51.10;100393.66;5062462;28;1246;-66
2021/07/25 12:50:46;;;;;;;;;;;;;;;27.35;50.67;100391.59;5064426;28;1241;-63
2021/07/25 12:53:15;;;;;;;;;;;;;;;27.26;50.37;100384.47;5064100;28;1977;-64
2021/07/25 12:55:46;;;;;;;;;;;;;;;27.25;49.93;100389.94;5066777;28;1376;-64
2021/07/25 12:58:13;;;;;;;;;;;;;;;27.25;49.94;100380.09;5063884;28;1237;-64